Kezdőlap
METAR-TAF:

METAR-TAF

Repülőterek :

Uljanovszk Vosztocsnij repülőtér

Uljanovszk, Oroszország

földrajzi szélesség: 54-21N, földrajzi hosszúság: 048-23E, magasság: 77 m

Jelenlegi meteorológiai megfigyelések

A jelentés 52 perccel ezelõtt készült, 06:00 UTC
Szélcsend
Hőmérséklet 13°C
Páratartalom 62%
Légköri nyomás 1032 hPa
Látótávolság: 8000 m

METAR: UWLW 300600Z 00000MPS 8000 NSC 13/06 Q1032 R20/CLRD60 NOSIG RMK QFE768

Idő: 09:52 (06:52 UTC)

Előrejelzés

A jelentés 2 órával és 7 perccel ezelõtt készült, 04:45 UTC
Az előrejelzés 30-én 06 óra UTC és 01-én 06 óra UTC között érvényes
Keleti szél 6 kt
Látótávolság: 8000 m
Szórványos felhőzet 3000 lábon
30-én 06 óra UTC és 30-én 15 óra UTC között ideiglenes
Délkeleti szél 6 kt széllökések: 16 kt

TAF: UWLW 300445Z 3006/0106 09003MPS 8000 SCT030 TX20/3011Z TN04/0102Z TEMPO 3006/3015 13003G08MPS

Meteorológiai megfigyelések és előrejelzések több, mint 4000 repülőtéren (METAR és TAF jelentéseket).

A térképen piros és sárga pontok jelzik az elérhető meteorológiai állomásokat.

Mozgassa az egeret a pont fölött, hogy megjelenjen az állomás neve.

Azután kattintson az időjárási megfigyelések és előrejelzések megtekintéséhez.

A térkép megváltoztatása: kattintson a fekete keresztel jelölt zöld gombra ráközelítéshez, a vonallal jelölt zöld gombra távolításhoz, vagy a zöld nyilakra a szomszédos térképek eléréséhez.


METAR-TAF: